Tropical Cyclones
[Index]
Main Index Home Page Stock Weather Photos Extreme Storms Discussion Storm News and Storm Chasing Reports Tropical Cyclones / Hurricanes / Typhoons Weather Data and Links Wild Fires / Bushfires Weather Observation Techniques Weather Picture Catalogue Tornado Pictures and Reports Stock Video Footage and DVDs for sale
Season 2013-2014 Tropical Cyclone HELLEN Track Map
Season 2013-2014 Summaries (Operational Data): [AU] [SIO] [SPAC] [SH]
<<- Previous TC | 2013-2014 Season | Next TC ->>

click for intensity scale information  Lat/long Grid: Show Hide

 Date Labels: Show Hide

Operational Tropical Cyclone Data : JTWC Advisories

Name: HELLEN
Number: 1421

25 Mar 2014 00:00 UTC to 05 Apr 2014 00:00 UTC

    date/time    lat    long     hPa   cat  kts
2014-03-25 00   12.5    36.8    1010         15          
2014-03-25 06   12.5    36.8    1010         15          
2014-03-25 12   10.7    37.5    1010         15          
2014-03-25 18   10.7    38.0    1010         15          
2014-03-26 00   10.7    38.4    1004         20          
2014-03-26 06   10.7    39.0    1004         25          
2014-03-26 12   10.7    39.4    1004         25          
2014-03-26 18   10.7    40.0    1004         25          
2014-03-27 00   10.9    40.5    1004         25          
2014-03-27 06   11.5    40.9    1004         25          
2014-03-27 12   12.2    40.8    1000         30          
2014-03-27 18   12.4    40.8    1000         30          
2014-03-28 00   12.5    41.0    1000         30          
2014-03-28 06   12.2    41.9    1000         30          
2014-03-28 12   12.6    41.9    1000         30          
2014-03-28 18   12.8    42.4     996    1    35          
2014-03-29 00   12.8    42.6     993    1    40          
2014-03-29 06   13.0    42.8     989    1    45          
2014-03-29 12   13.2    43.2     985    2    50          
2014-03-29 18   13.5    43.5     974    3    65          
2014-03-30 00   14.1    43.9     952    4    95          
2014-03-30 06   14.4    44.3     937    5   115          
2014-03-30 12   14.7    44.6     922    5   135          
2014-03-30 18   15.0    45.0     922    5   135          
2014-03-31 00   15.3    45.4     929    5   125          
2014-03-31 06   15.7    45.7     948    4   100          
2014-03-31 12   16.2    45.9     959    3    85          
2014-03-31 18   16.5    45.9     974    3    65          
2014-04-01 00   15.9    45.1     989    1    45          
2014-04-01 06   15.6    44.9     998    1    35          
2014-04-01 12   16.1    44.5    1002         30          
2014-04-01 18   16.9    43.9    1004         25          
2014-04-02 00   17.4    43.0    1004         25          
2014-04-02 06   17.9    42.5    1004         25          
2014-04-02 12   18.3    42.3    1005         25          
2014-04-02 18   19.1    42.0    1004         25          
2014-04-03 00   19.6    41.3    1004         25          
2014-04-03 06   20.1    40.6    1007         20          
2014-04-03 12   20.4    39.9    1004         25          
2014-04-03 18   20.7    39.4    1004         25          
2014-04-04 00   21.3    38.3    1004         25          
2014-04-04 06   21.6    37.2    1004         25          
2014-04-04 12   21.6    36.2    1007         20          
2014-04-04 18   21.2    35.1    1007         20          
2014-04-05 00   20.8    34.8    1007         20          
Winds are 10-min average.

Tropical cyclone tracks developed by Michael Bath using operational warnings and advisories and Google Maps.


[Australian Severe Weather index] [Copyright Notice] [Email Contacts] [Search This Site] [Privacy Policy]
Document: tropical_cyclone_hellen.htm Updated: 2 May 2017